Time;durP1;ratioP1;P1;durP2;ratioP2;P2;SDS_P1;SDS_P2;PMS_P1;PMS_P2;Temp;Humidity;BMP_temperature;BMP_pressure;BME280_temperature;BME280_humidity;BME280_pressure;Samples;Min_cycle;Max_cycle;Signal;HPM_P1;HPM_P2
2023/07/03 00:02:17;;;;;;;;;4.00;3.00;;;;;;;;5069248;28;8821;-59
2023/07/03 00:04:45;;;;;;;;;4.00;3.33;;;;;;;;5059493;28;8883;-59
2023/07/03 00:07:11;;;;;;;;;3.00;3.00;;;;;;;;5070419;28;8786;-59
2023/07/03 00:09:36;;;;;;;;;4.00;3.00;;;;;;;;5073477;28;9115;-59
2023/07/03 00:12:01;;;;;;;;;4.00;4.00;;;;;;;;5066593;28;8794;-61
2023/07/03 00:14:26;;;;;;;;;5.00;4.00;;;;;;;;5067501;28;8830;-60
2023/07/03 00:16:51;;;;;;;;;5.33;4.00;;;;;;;;5069353;28;8860;-59
2023/07/03 00:19:16;;;;;;;;;4.00;4.00;;;;;;;;5059508;28;8857;-59
2023/07/03 00:21:45;;;;;;;;;7.00;6.00;;;;;;;;5063799;28;8927;-60
2023/07/03 00:24:11;;;;;;;;;3.33;3.33;;;;;;;;5069950;28;8808;-59
2023/07/03 00:26:36;;;;;;;;;4.33;3.00;;;;;;;;5070063;28;8942;-59
2023/07/03 00:29:01;;;;;;;;;3.67;3.67;;;;;;;;5068203;28;8965;-61
2023/07/03 00:31:26;;;;;;;;;3.00;3.00;;;;;;;;5069469;28;8892;-59
2023/07/03 00:33:51;;;;;;;;;4.00;4.00;;;;;;;;5068710;28;8944;-60
2023/07/03 00:36:17;;;;;;;;;4.00;3.00;;;;;;;;5067809;28;8829;-60
2023/07/03 00:38:42;;;;;;;;;3.33;3.33;;;;;;;;5069019;28;9642;-60
2023/07/03 00:41:07;;;;;;;;;5.33;4.00;;;;;;;;5068498;28;8849;-60
2023/07/03 00:43:33;;;;;;;;;3.00;2.33;;;;;;;;5070108;28;8798;-60
2023/07/03 00:45:58;;;;;;;;;4.00;3.33;;;;;;;;5067103;28;8797;-60
2023/07/03 00:48:23;;;;;;;;;4.00;3.33;;;;;;;;5069214;28;9533;-60
2023/07/03 00:50:48;;;;;;;;;5.00;5.00;;;;;;;;5067414;28;8907;-59
2023/07/03 00:53:14;;;;;;;;;4.00;3.00;;;;;;;;5067712;28;8828;-58
2023/07/03 00:55:39;;;;;;;;;6.33;4.00;;;;;;;;5062535;28;9577;-59
2023/07/03 00:58:04;;;;;;;;;4.00;3.67;;;;;;;;5069634;28;8822;-59
2023/07/03 01:00:33;;;;;;;;;2.33;2.33;;;;;;;;5071790;28;8841;-58
2023/07/03 01:03:07;;;;;;;;;7.00;5.67;;;;;;;;5064565;28;8829;-60
2023/07/03 01:05:38;;;;;;;;;4.00;3.00;;;;;;;;5071009;28;8959;-60
2023/07/03 01:08:03;;;;;;;;;6.67;5.00;;;;;;;;5063983;28;8790;-63
2023/07/03 01:10:32;;;;;;;;;4.00;4.00;;;;;;;;5072421;28;9231;-58
2023/07/03 01:13:05;;;;;;;;;3.25;3.25;;;;;;;;5072290;28;9567;-58
2023/07/03 01:15:33;;;;;;;;;3.00;3.00;;;;;;;;5063384;28;8859;-59
2023/07/03 01:18:01;;;;;;;;;4.67;4.33;;;;;;;;5072103;28;8806;-58
2023/07/03 01:20:33;;;;;;;;;4.33;4.00;;;;;;;;5071026;28;8915;-59
2023/07/03 01:23:10;;;;;;;;;6.00;5.67;;;;;;;;5069103;28;9815;-59
2023/07/03 01:25:37;;;;;;;;;4.33;4.00;;;;;;;;5072088;28;9027;-59
2023/07/03 01:28:04;;;;;;;;;4.33;4.33;;;;;;;;5071656;28;8931;-60
2023/07/03 01:30:30;;;;;;;;;3.33;3.00;;;;;;;;5072851;28;8911;-59
2023/07/03 01:32:56;;;;;;;;;4.33;3.67;;;;;;;;5070179;28;9121;-59
2023/07/03 01:35:23;;;;;;;;;5.00;4.00;;;;;;;;5064608;28;9843;-59
2023/07/03 01:37:50;;;;;;;;;5.00;4.33;;;;;;;;5065391;28;10101;-59
2023/07/03 01:40:17;;;;;;;;;3.00;3.00;;;;;;;;5068166;28;9154;-59
2023/07/03 01:42:44;;;;;;;;;4.00;4.00;;;;;;;;5069186;28;9219;-59
2023/07/03 01:45:10;;;;;;;;;1.00;1.00;;;;;;;;5053124;28;9168;-59
2023/07/03 01:47:36;;;;;;;;;4.33;4.00;;;;;;;;5052778;28;9374;-59
2023/07/03 01:50:01;;;;;;;;;3.33;3.00;;;;;;;;5057123;28;8797;-59
2023/07/03 01:52:31;;;;;;;;;4.00;4.00;;;;;;;;5062845;28;9161;-59
2023/07/03 01:54:56;;;;;;;;;5.67;4.67;;;;;;;;5061311;28;8798;-59
2023/07/03 01:57:26;;;;;;;;;4.00;3.25;;;;;;;;5072915;28;9327;-59
2023/07/03 01:59:52;;;;;;;;;6.33;5.33;;;;;;;;5072211;28;8810;-59
2023/07/03 02:02:21;;;;;;;;;4.67;4.67;;;;;;;;5068647;28;9223;-60
2023/07/03 02:04:52;;;;;;;;;5.00;3.00;;;;;;;;5052580;28;9058;-58
2023/07/03 02:07:18;;;;;;;;;5.00;5.00;;;;;;;;5053587;28;9291;-59
2023/07/03 02:09:44;;;;;;;;;5.00;5.00;;;;;;;;5069404;28;9119;-60
2023/07/03 02:12:11;;;;;;;;;4.33;4.33;;;;;;;;5064927;28;10605;-60
2023/07/03 02:14:36;;;;;;;;;5.67;5.00;;;;;;;;5060671;28;9560;-59
2023/07/03 02:17:02;;;;;;;;;5.00;4.00;;;;;;;;5051344;28;9306;-59
2023/07/03 02:19:31;;;;;;;;;5.67;5.00;;;;;;;;5052499;28;8828;-59
2023/07/03 02:21:56;;;;;;;;;3.00;3.00;;;;;;;;5053227;28;8804;-59
2023/07/03 02:24:22;;;;;;;;;7.33;6.33;;;;;;;;5070351;28;9224;-59
2023/07/03 02:26:47;;;;;;;;;8.00;6.67;;;;;;;;5056684;28;8812;-59
2023/07/03 02:29:13;;;;;;;;;5.33;5.00;;;;;;;;5052415;28;8824;-59
2023/07/03 02:31:38;;;;;;;;;4.67;4.00;;;;;;;;5064484;28;8844;-59
2023/07/03 02:34:03;;;;;;;;;7.00;5.33;;;;;;;;5070239;28;8801;-60
2023/07/03 02:36:30;;;;;;;;;7.00;5.00;;;;;;;;5056269;28;8813;-59
2023/07/03 02:38:56;;;;;;;;;5.67;5.00;;;;;;;;5058614;28;8806;-60
2023/07/03 02:41:22;;;;;;;;;6.00;5.00;;;;;;;;5060448;28;9144;-59
2023/07/03 02:43:48;;;;;;;;;8.00;7.00;;;;;;;;5063780;28;9720;-59
2023/07/03 02:46:13;;;;;;;;;5.00;4.00;;;;;;;;5061654;28;9224;-59
2023/07/03 02:48:39;;;;;;;;;5.67;5.00;;;;;;;;5058018;28;8830;-60
2023/07/03 02:51:04;;;;;;;;;5.00;4.00;;;;;;;;5060595;28;8833;-60
2023/07/03 02:53:30;;;;;;;;;4.33;4.33;;;;;;;;5060458;28;9091;-60
2023/07/03 02:55:55;;;;;;;;;6.00;6.00;;;;;;;;5066414;28;8814;-60
2023/07/03 02:58:20;;;;;;;;;7.00;4.67;;;;;;;;5051523;28;9528;-58
2023/07/03 03:00:46;;;;;;;;;6.00;6.00;;;;;;;;5070156;28;8810;-60
2023/07/03 03:03:13;;;;;;;;;6.33;6.00;;;;;;;;5062412;28;8807;-59
2023/07/03 03:05:38;;;;;;;;;10.67;7.33;;;;;;;;5057843;28;9273;-59
2023/07/03 03:08:04;;;;;;;;;6.67;4.33;;;;;;;;5053476;28;9323;-59
2023/07/03 03:10:29;;;;;;;;;6.00;5.00;;;;;;;;5069403;28;8806;-59
2023/07/03 03:12:54;;;;;;;;;5.33;5.33;;;;;;;;5066170;28;8840;-60
2023/07/03 03:15:20;;;;;;;;;7.67;7.00;;;;;;;;5071366;28;8811;-60
2023/07/03 03:17:46;;;;;;;;;6.00;5.00;;;;;;;;5065712;28;9285;-60
2023/07/03 03:20:13;;;;;;;;;7.33;7.33;;;;;;;;5065876;28;8854;-60
2023/07/03 03:22:39;;;;;;;;;5.33;4.00;;;;;;;;5070185;28;9687;-59
2023/07/03 03:25:04;;;;;;;;;5.00;5.00;;;;;;;;5059837;28;9220;-59
2023/07/03 03:27:29;;;;;;;;;5.33;5.33;;;;;;;;5056898;28;8980;-58
2023/07/03 03:29:54;;;;;;;;;6.33;5.67;;;;;;;;5060500;28;8838;-59
2023/07/03 03:32:19;;;;;;;;;6.00;5.00;;;;;;;;5066580;28;8809;-60
2023/07/03 03:34:45;;;;;;;;;6.00;6.00;;;;;;;;5057991;28;8785;-59
2023/07/03 03:37:10;;;;;;;;;7.00;7.00;;;;;;;;5061076;28;8822;-60
2023/07/03 03:39:35;;;;;;;;;9.33;8.00;;;;;;;;5062585;28;9623;-60
2023/07/03 03:42:00;;;;;;;;;8.33;7.67;;;;;;;;5051312;28;8791;-60
2023/07/03 03:44:25;;;;;;;;;9.00;8.00;;;;;;;;5068375;28;8829;-59
2023/07/03 03:46:54;;;;;;;;;6.00;6.00;;;;;;;;5062917;28;8817;-59
2023/07/03 03:49:19;;;;;;;;;8.00;8.00;;;;;;;;5063842;28;8810;-59
2023/07/03 03:51:44;;;;;;;;;8.67;7.67;;;;;;;;5060369;28;9407;-59
2023/07/03 03:54:10;;;;;;;;;9.00;9.00;;;;;;;;5054801;28;8826;-60
2023/07/03 03:56:35;;;;;;;;;8.67;8.00;;;;;;;;5064894;28;8897;-60
2023/07/03 03:59:01;;;;;;;;;7.00;5.33;;;;;;;;5063912;28;8836;-60
2023/07/03 04:01:26;;;;;;;;;8.00;8.00;;;;;;;;5063597;28;9560;-61
2023/07/03 04:03:51;;;;;;;;;6.00;6.00;;;;;;;;5064154;28;9016;-59
2023/07/03 04:06:16;;;;;;;;;7.00;6.67;;;;;;;;5067991;28;8857;-59
2023/07/03 04:08:42;;;;;;;;;6.67;5.33;;;;;;;;5062113;28;8812;-58
2023/07/03 04:11:07;;;;;;;;;7.67;6.00;;;;;;;;5058585;28;8804;-59
2023/07/03 04:13:32;;;;;;;;;8.00;7.00;;;;;;;;5062900;28;8813;-60
2023/07/03 04:16:00;;;;;;;;;8.00;7.00;;;;;;;;5067016;28;9580;-58
2023/07/03 04:18:25;;;;;;;;;8.00;8.00;;;;;;;;5068487;28;8802;-58
2023/07/03 04:20:51;;;;;;;;;5.33;5.33;;;;;;;;5058281;28;9511;-59
2023/07/03 04:23:17;;;;;;;;;6.67;6.67;;;;;;;;5057958;28;8794;-59
2023/07/03 04:25:42;;;;;;;;;6.67;6.00;;;;;;;;5052746;28;8891;-59
2023/07/03 04:28:08;;;;;;;;;8.00;7.67;;;;;;;;5062282;28;8802;-59
2023/07/03 04:30:33;;;;;;;;;9.00;7.00;;;;;;;;5058076;28;9010;-59
2023/07/03 04:32:58;;;;;;;;;9.67;8.33;;;;;;;;5065573;28;8790;-59
2023/07/03 04:35:24;;;;;;;;;7.33;7.33;;;;;;;;5068042;28;8828;-59
2023/07/03 04:37:49;;;;;;;;;8.33;7.00;;;;;;;;5061344;28;8889;-60
2023/07/03 04:40:15;;;;;;;;;7.00;7.00;;;;;;;;5067063;28;8914;-59
2023/07/03 04:42:40;;;;;;;;;9.33;8.67;;;;;;;;5071591;28;8805;-60
2023/07/03 04:45:07;;;;;;;;;8.67;8.00;;;;;;;;5065807;28;8852;-59
2023/07/03 04:47:32;;;;;;;;;8.67;6.00;;;;;;;;5072089;28;8879;-59
2023/07/03 04:49:58;;;;;;;;;7.33;6.00;;;;;;;;5061084;28;9352;-59
2023/07/03 04:52:27;;;;;;;;;8.67;5.67;;;;;;;;5070753;28;8936;-60
2023/07/03 04:54:52;;;;;;;;;10.33;9.00;;;;;;;;5072136;28;8828;-60
2023/07/03 04:57:17;;;;;;;;;7.67;6.67;;;;;;;;5072336;28;9440;-59
2023/07/03 04:59:43;;;;;;;;;6.00;6.00;;;;;;;;5072081;28;8825;-59
2023/07/03 05:02:08;;;;;;;;;10.00;9.00;;;;;;;;5069509;28;8818;-59
2023/07/03 05:04:34;;;;;;;;;5.00;5.00;;;;;;;;5063553;28;8800;-60
2023/07/03 05:06:59;;;;;;;;;6.67;6.00;;;;;;;;5060603;28;9513;-60
2023/07/03 05:09:24;;;;;;;;;9.00;6.00;;;;;;;;5072881;28;8794;-60
2023/07/03 05:11:49;;;;;;;;;7.00;6.33;;;;;;;;5069169;28;8792;-59
2023/07/03 05:14:15;;;;;;;;;8.33;7.67;;;;;;;;5072084;28;8850;-60
2023/07/03 05:16:40;;;;;;;;;8.33;7.67;;;;;;;;5068150;28;8808;-58
2023/07/03 05:19:05;;;;;;;;;6.33;5.00;;;;;;;;5058861;28;8849;-60
2023/07/03 05:21:31;;;;;;;;;9.67;7.67;;;;;;;;5073642;28;8842;-60
2023/07/03 05:23:56;;;;;;;;;7.33;6.33;;;;;;;;5070469;28;8845;-60
2023/07/03 05:26:21;;;;;;;;;8.00;7.00;;;;;;;;5073495;28;8833;-60
2023/07/03 05:28:46;;;;;;;;;8.33;7.00;;;;;;;;5073120;28;8806;-59
2023/07/03 05:31:11;;;;;;;;;6.00;6.00;;;;;;;;5073319;28;8825;-60
2023/07/03 05:33:37;;;;;;;;;7.33;6.33;;;;;;;;5068296;28;8810;-59
2023/07/03 05:36:02;;;;;;;;;7.00;7.00;;;;;;;;5052264;28;8808;-60
2023/07/03 05:38:28;;;;;;;;;7.33;6.67;;;;;;;;5051557;28;9633;-60
2023/07/03 05:40:54;;;;;;;;;7.00;6.00;;;;;;;;5052920;28;8851;-59
2023/07/03 05:43:19;;;;;;;;;7.00;7.00;;;;;;;;5062443;28;8798;-60
2023/07/03 05:45:48;;;;;;;;;8.33;7.33;;;;;;;;5058675;28;9768;-59
2023/07/03 05:48:14;;;;;;;;;6.00;5.00;;;;;;;;5060442;28;8887;-59
2023/07/03 05:50:39;;;;;;;;;6.00;5.00;;;;;;;;5057506;28;9142;-60
2023/07/03 05:53:04;;;;;;;;;4.33;4.33;;;;;;;;5061188;28;8836;-60
2023/07/03 05:55:30;;;;;;;;;6.00;4.67;;;;;;;;5069901;28;9600;-60
2023/07/03 05:57:55;;;;;;;;;5.33;4.33;;;;;;;;5072675;28;8801;-60
2023/07/03 06:00:21;;;;;;;;;5.00;5.00;;;;;;;;5067435;28;8924;-59
2023/07/03 06:02:47;;;;;;;;;7.00;7.00;;;;;;;;5066913;28;8856;-61
2023/07/03 06:05:13;;;;;;;;;5.33;5.33;;;;;;;;5067453;28;9656;-66
2023/07/03 06:07:38;;;;;;;;;4.00;4.00;;;;;;;;5070900;28;11473;-62
2023/07/03 06:10:05;;;;;;;;;5.00;5.00;;;;;;;;5071406;28;8914;-62
2023/07/03 06:12:30;;;;;;;;;6.00;6.00;;;;;;;;5071071;28;8801;-62
2023/07/03 06:14:56;;;;;;;;;5.00;4.67;;;;;;;;5060665;28;8969;-62
2023/07/03 06:17:22;;;;;;;;;6.33;5.00;;;;;;;;5051922;28;8803;-62
2023/07/03 06:19:47;;;;;;;;;5.00;5.00;;;;;;;;5062999;28;9221;-61
2023/07/03 06:22:12;;;;;;;;;4.67;4.67;;;;;;;;5062407;28;8801;-61
2023/07/03 06:24:37;;;;;;;;;5.33;5.33;;;;;;;;5050108;28;8825;-62
2023/07/03 06:27:03;;;;;;;;;5.67;5.67;;;;;;;;5051648;28;8797;-61
2023/07/03 06:29:28;;;;;;;;;4.67;4.67;;;;;;;;5052212;28;8807;-62
2023/07/03 06:31:53;;;;;;;;;7.00;6.00;;;;;;;;5063267;28;8853;-63
2023/07/03 06:34:19;;;;;;;;;5.67;5.67;;;;;;;;5072038;28;8802;-62
2023/07/03 06:36:44;;;;;;;;;5.67;5.67;;;;;;;;5068252;28;9517;-62
2023/07/03 06:39:09;;;;;;;;;7.67;6.00;;;;;;;;5066132;28;8797;-62
2023/07/03 06:41:35;;;;;;;;;4.00;3.67;;;;;;;;5070342;28;8818;-61
2023/07/03 06:44:00;;;;;;;;;5.00;5.00;;;;;;;;5071204;28;8801;-62
2023/07/03 06:46:25;;;;;;;;;5.00;5.00;;;;;;;;5069955;28;8982;-61
2023/07/03 06:48:52;;;;;;;;;4.00;4.00;;;;;;;;5068771;28;8838;-61
2023/07/03 06:51:18;;;;;;;;;7.67;6.00;;;;;;;;5070396;28;8908;-62
2023/07/03 06:53:43;;;;;;;;;6.00;5.00;;;;;;;;5067248;28;8990;-62
2023/07/03 06:56:08;;;;;;;;;8.00;7.33;;;;;;;;5071528;28;8826;-62
2023/07/03 06:58:34;;;;;;;;;6.67;5.00;;;;;;;;5067834;28;8828;-63
2023/07/03 07:01:09;;;;;;;;;5.00;5.00;;;;;;;;5071096;28;8826;-62
2023/07/03 07:03:35;;;;;;;;;6.00;5.00;;;;;;;;5063159;28;8818;-62
2023/07/03 07:06:06;;;;;;;;;7.00;6.00;;;;;;;;5069514;28;8806;-62
2023/07/03 07:08:31;;;;;;;;;9.50;8.75;;;;;;;;5069937;28;9351;-63
2023/07/03 07:10:56;;;;;;;;;5.00;5.00;;;;;;;;5069338;28;8841;-63
2023/07/03 07:13:22;;;;;;;;;7.00;6.00;;;;;;;;5068458;28;8810;-61
2023/07/03 07:15:47;;;;;;;;;5.67;5.00;;;;;;;;5065359;28;9560;-62
2023/07/03 07:18:13;;;;;;;;;6.00;5.00;;;;;;;;5070835;28;9567;-63
2023/07/03 07:20:40;;;;;;;;;6.50;5.75;;;;;;;;5065378;28;8827;-62
2023/07/03 07:23:06;;;;;;;;;7.00;7.00;;;;;;;;5066395;28;8834;-62
2023/07/03 07:25:31;;;;;;;;;5.25;5.25;;;;;;;;5067739;28;9671;-63
2023/07/03 07:27:57;;;;;;;;;7.00;5.00;;;;;;;;5060192;28;8877;-59
2023/07/03 07:30:22;;;;;;;;;6.00;6.00;;;;;;;;5060449;28;8824;-60
2023/07/03 07:32:48;;;;;;;;;4.00;4.00;;;;;;;;5068125;28;9748;-60
2023/07/03 07:35:14;;;;;;;;;5.67;4.67;;;;;;;;5069996;28;8925;-59
2023/07/03 07:37:39;;;;;;;;;4.50;3.75;;;;;;;;5058103;28;8802;-60
2023/07/03 07:40:05;;;;;;;;;9.00;8.00;;;;;;;;5068254;28;8856;-60
2023/07/03 07:42:31;;;;;;;;;6.00;6.00;;;;;;;;5052154;28;8800;-60
2023/07/03 07:44:56;;;;;;;;;5.00;5.00;;;;;;;;5067883;28;8778;-60
2023/07/03 07:47:21;;;;;;;;;5.67;4.67;;;;;;;;5070439;28;8983;-60
2023/07/03 07:49:46;;;;;;;;;5.00;5.00;;;;;;;;5068792;28;8802;-61
2023/07/03 07:52:12;;;;;;;;;5.00;5.00;;;;;;;;5068551;28;8810;-61
2023/07/03 07:54:37;;;;;;;;;8.00;6.00;;;;;;;;5066140;28;8855;-66
2023/07/03 07:57:02;;;;;;;;;5.00;5.00;;;;;;;;5064740;28;8877;-65
2023/07/03 07:59:27;;;;;;;;;6.33;6.00;;;;;;;;5068488;28;8814;-66
2023/07/03 08:01:52;;;;;;;;;5.00;4.33;;;;;;;;5068982;28;8848;-67
2023/07/03 08:04:18;;;;;;;;;6.00;4.33;;;;;;;;5061577;28;8844;-65
2023/07/03 08:06:43;;;;;;;;;4.33;4.33;;;;;;;;5063121;28;8862;-59
2023/07/03 08:09:08;;;;;;;;;5.67;5.00;;;;;;;;5067217;28;8852;-60
2023/07/03 08:11:33;;;;;;;;;7.33;6.33;;;;;;;;5061624;28;8901;-59
2023/07/03 08:13:58;;;;;;;;;5.00;4.67;;;;;;;;5062348;28;8792;-60
2023/07/03 08:16:24;;;;;;;;;5.33;5.00;;;;;;;;5068681;28;8899;-60
2023/07/03 08:18:49;;;;;;;;;5.00;5.00;;;;;;;;5064809;28;8849;-60
2023/07/03 08:21:17;;;;;;;;;6.33;5.33;;;;;;;;5069351;28;9626;-60
2023/07/03 08:23:42;;;;;;;;;9.00;8.33;;;;;;;;5072014;28;8786;-60
2023/07/03 08:26:15;;;;;;;;;6.00;5.00;;;;;;;;5072348;28;9055;-61
2023/07/03 08:28:40;;;;;;;;;5.25;5.25;;;;;;;;5068369;28;8896;-61
2023/07/03 08:31:06;;;;;;;;;7.00;6.33;;;;;;;;5070991;28;8940;-60
2023/07/03 08:33:31;;;;;;;;;7.33;6.00;;;;;;;;5067215;28;8810;-60
2023/07/03 08:35:56;;;;;;;;;5.00;4.00;;;;;;;;5067681;28;8892;-60
2023/07/03 08:38:21;;;;;;;;;6.00;6.00;;;;;;;;5071388;28;8836;-60
2023/07/03 08:40:53;;;;;;;;;8.00;6.00;;;;;;;;5072060;28;8951;-60
2023/07/03 08:43:19;;;;;;;;;7.33;5.33;;;;;;;;5069927;28;8813;-60
2023/07/03 08:45:45;;;;;;;;;8.00;6.33;;;;;;;;5072082;28;9036;-60
2023/07/03 08:48:13;;;;;;;;;8.25;7.50;;;;;;;;5067783;28;8958;-60
2023/07/03 08:50:41;;;;;;;;;6.33;6.33;;;;;;;;5067060;28;8869;-60
2023/07/03 08:53:09;;;;;;;;;6.67;6.67;;;;;;;;5071987;28;9028;-59
2023/07/03 08:55:37;;;;;;;;;8.50;8.00;;;;;;;;5072145;28;8878;-60
2023/07/03 08:58:02;;;;;;;;;5.33;5.33;;;;;;;;5072093;28;8884;-60
2023/07/03 09:00:29;;;;;;;;;9.00;6.67;;;;;;;;5069464;28;8933;-60
2023/07/03 09:02:54;;;;;;;;;8.00;7.00;;;;;;;;5062430;28;8829;-62
2023/07/03 09:05:23;;;;;;;;;9.67;7.67;;;;;;;;5070104;28;9004;-60
2023/07/03 09:07:53;;;;;;;;;6.25;6.25;;;;;;;;5067558;28;8784;-60
2023/07/03 09:10:25;;;;;;;;;8.00;7.33;;;;;;;;5068616;28;8794;-61
2023/07/03 09:13:03;;;;;;;;;5.00;5.00;;;;;;;;5066639;28;8891;-60
2023/07/03 09:15:33;;;;;;;;;6.00;6.00;;;;;;;;5068848;28;9123;-61
2023/07/03 09:18:00;;;;;;;;;9.00;7.33;;;;;;;;5071506;28;9082;-60
2023/07/03 09:20:28;;;;;;;;;8.00;7.00;;;;;;;;5070527;28;9311;-60
2023/07/03 09:23:11;;;;;;;;;7.00;6.67;;;;;;;;5069604;28;9624;-60
2023/07/03 09:25:41;;;;;;;;;6.33;5.67;;;;;;;;5056123;28;9427;-60
2023/07/03 09:28:09;;;;;;;;;5.67;5.00;;;;;;;;5053136;28;9016;-59
2023/07/03 09:30:34;;;;;;;;;6.67;6.00;;;;;;;;5052961;28;9158;-60
2023/07/03 09:32:59;;;;;;;;;6.67;6.67;;;;;;;;5066547;28;9843;-59
2023/07/03 09:35:31;;;;;;;;;6.00;4.00;;;;;;;;5071758;28;8915;-61
2023/07/03 09:37:57;;;;;;;;;5.33;5.00;;;;;;;;5072184;28;8791;-60
2023/07/03 09:40:22;;;;;;;;;8.67;7.33;;;;;;;;5071629;28;9126;-59
2023/07/03 09:42:48;;;;;;;;;7.67;7.00;;;;;;;;5057442;28;11515;-59
2023/07/03 09:45:15;;;;;;;;;6.00;5.67;;;;;;;;5052711;28;8844;-59
2023/07/03 09:47:41;;;;;;;;;6.00;5.67;;;;;;;;5052464;28;9689;-60
2023/07/03 09:50:06;;;;;;;;;7.67;7.33;;;;;;;;5062119;28;8958;-59
2023/07/03 09:52:32;;;;;;;;;10.33;9.00;;;;;;;;5072319;28;8845;-60
2023/07/03 09:54:58;;;;;;;;;7.00;6.67;;;;;;;;5072417;28;8856;-60
2023/07/03 09:57:25;;;;;;;;;6.25;5.50;;;;;;;;5071305;28;8813;-58
2023/07/03 09:59:51;;;;;;;;;6.67;6.33;;;;;;;;5052352;28;8809;-60
2023/07/03 10:02:20;;;;;;;;;6.67;5.67;;;;;;;;5052652;28;9007;-60
2023/07/03 10:04:45;;;;;;;;;7.00;6.00;;;;;;;;5052940;28;9029;-59
2023/07/03 10:07:13;;;;;;;;;5.67;5.00;;;;;;;;5070937;28;8939;-59
2023/07/03 10:09:40;;;;;;;;;8.00;8.00;;;;;;;;5066681;28;8809;-59
2023/07/03 10:12:10;;;;;;;;;8.00;7.67;;;;;;;;5057786;28;8954;-60
2023/07/03 10:14:51;;;;;;;;;7.75;7.00;;;;;;;;5067491;28;8952;-59
2023/07/03 10:17:20;;;;;;;;;6.00;5.00;;;;;;;;5051916;28;8781;-60
2023/07/03 10:19:52;;;;;;;;;8.50;7.50;;;;;;;;5052413;28;8947;-59
2023/07/03 10:22:18;;;;;;;;;9.00;8.00;;;;;;;;5057514;28;8816;-60
2023/07/03 10:24:43;;;;;;;;;9.00;7.00;;;;;;;;5052033;28;9165;-60
2023/07/03 10:27:08;;;;;;;;;6.00;6.00;;;;;;;;5051660;28;8824;-60
2023/07/03 10:29:40;;;;;;;;;5.33;5.33;;;;;;;;5062386;28;8844;-60
2023/07/03 10:32:13;;;;;;;;;5.00;4.00;;;;;;;;5071976;28;8928;-60
2023/07/03 10:34:53;;;;;;;;;4.75;3.75;;;;;;;;5071849;28;8871;-59
2023/07/03 10:37:18;;;;;;;;;5.00;4.75;;;;;;;;5070452;28;8806;-60
2023/07/03 10:39:55;;;;;;;;;5.67;5.67;;;;;;;;5072451;28;9578;-60
2023/07/03 10:42:36;;;;;;;;;8.33;7.00;;;;;;;;5053812;28;8907;-60
2023/07/03 10:45:12;;;;;;;;;6.50;6.00;;;;;;;;5064674;28;9094;-59
2023/07/03 10:47:50;;;;;;;;;6.25;5.75;;;;;;;;5071234;28;9067;-60
2023/07/03 10:50:19;;;;;;;;;7.00;7.00;;;;;;;;5071127;28;8822;-60
2023/07/03 10:52:57;;;;;;;;;8.00;4.67;;;;;;;;5061251;28;8976;-61
2023/07/03 10:55:33;;;;;;;;;7.00;6.00;;;;;;;;5050712;28;8878;-60
2023/07/03 10:58:07;;;;;;;;;6.33;6.33;;;;;;;;5051385;28;9103;-60
2023/07/03 11:00:41;;;;;;;;;7.67;7.00;;;;;;;;5069569;28;9049;-60
2023/07/03 11:03:09;;;;;;;;;8.00;8.00;;;;;;;;5071129;28;8930;-60
2023/07/03 11:05:44;;;;;;;;;9.00;8.00;;;;;;;;5070884;28;9047;-59
2023/07/03 11:08:17;;;;;;;;;8.33;7.33;;;;;;;;5070503;28;8977;-60
2023/07/03 11:10:42;;;;;;;;;4.50;4.50;;;;;;;;5050889;28;9169;-58
2023/07/03 11:13:14;;;;;;;;;5.33;5.33;;;;;;;;5065352;28;9559;-60
2023/07/03 11:16:06;;;;;;;;;6.00;6.00;;;;;;;;5056837;28;8814;-59
2023/07/03 11:18:34;;;;;;;;;6.00;5.75;;;;;;;;5052446;28;9116;-60
2023/07/03 11:21:10;;;;;;;;;6.00;6.00;;;;;;;;5070350;28;8801;-59
2023/07/03 11:23:43;;;;;;;;;6.75;5.75;;;;;;;;5070607;28;9876;-59
2023/07/03 11:26:24;;;;;;;;;5.33;5.00;;;;;;;;5070988;28;8782;-60
2023/07/03 11:28:50;;;;;;;;;6.00;5.00;;;;;;;;5063805;28;8897;-59
2023/07/03 11:31:16;;;;;;;;;5.00;4.50;;;;;;;;5068385;28;8790;-59
2023/07/03 11:33:42;;;;;;;;;4.00;3.00;;;;;;;;5072013;28;8810;-61
2023/07/03 11:36:27;;;;;;;;;5.33;5.33;;;;;;;;5070523;28;8791;-59
2023/07/03 11:39:13;;;;;;;;;0.75;0.00;;;;;;;;5055131;28;8832;-59
2023/07/03 11:42:01;;;;;;;;;3.75;3.75;;;;;;;;5050587;28;8890;-60
2023/07/03 11:44:31;;;;;;;;;3.00;3.00;;;;;;;;5051975;28;8848;-59
2023/07/03 11:46:58;;;;;;;;;3.00;3.00;;;;;;;;5070774;28;8873;-59
2023/07/03 11:49:25;;;;;;;;;4.25;4.00;;;;;;;;5070630;28;8806;-60
2023/07/03 11:51:55;;;;;;;;;4.33;3.67;;;;;;;;5067321;28;8805;-60
2023/07/03 11:54:23;;;;;;;;;3.50;2.75;;;;;;;;5050530;28;8880;-60
2023/07/03 11:56:51;;;;;;;;;5.25;3.25;;;;;;;;5048709;28;9392;-59
2023/07/03 11:59:18;;;;;;;;;5.67;4.33;;;;;;;;5058659;28;8917;-58
2023/07/03 12:01:44;;;;;;;;;3.25;3.25;;;;;;;;5054427;28;8908;-60
2023/07/03 12:04:09;;;;;;;;;3.67;3.33;;;;;;;;5058649;28;8917;-60
2023/07/03 12:06:40;;;;;;;;;4.33;3.33;;;;;;;;5069937;28;8828;-59
2023/07/03 12:09:21;;;;;;;;;4.50;4.00;;;;;;;;5064795;28;8786;-60
2023/07/03 12:12:07;;;;;;;;;4.00;4.00;;;;;;;;5062399;28;8895;-60
2023/07/03 12:14:56;;;;;;;;;2.75;2.00;;;;;;;;5050627;28;8821;-60
2023/07/03 12:17:27;;;;;;;;;4.00;3.50;;;;;;;;5050247;28;8788;-60
2023/07/03 12:19:54;;;;;;;;;3.67;3.67;;;;;;;;5049972;28;8905;-60
2023/07/03 12:22:20;;;;;;;;;5.00;4.50;;;;;;;;5049706;28;9066;-60
2023/07/03 12:24:45;;;;;;;;;5.00;4.00;;;;;;;;5059256;28;8811;-59
2023/07/03 12:27:11;;;;;;;;;3.00;2.33;;;;;;;;5070188;28;9009;-60
2023/07/03 12:29:47;;;;;;;;;4.00;4.00;;;;;;;;5070192;28;8818;-59
2023/07/03 12:32:12;;;;;;;;;4.00;4.00;;;;;;;;5051958;28;8793;-60
2023/07/03 12:34:38;;;;;;;;;5.33;5.00;;;;;;;;5050266;28;9036;-60
2023/07/03 12:37:07;;;;;;;;;4.00;4.00;;;;;;;;5057171;28;8841;-59
2023/07/03 12:39:33;;;;;;;;;4.25;4.25;;;;;;;;5060297;28;9028;-60
2023/07/03 12:42:21;;;;;;;;;3.75;3.75;;;;;;;;5068569;28;8821;-60
2023/07/03 12:44:47;;;;;;;;;6.67;5.67;;;;;;;;5064259;28;8816;-59
2023/07/03 12:47:13;;;;;;;;;9.00;9.00;;;;;;;;5069729;28;10015;-59
2023/07/03 12:49:49;;;;;;;;;16.50;16.50;;;;;;;;5069813;28;8802;-59
2023/07/03 12:52:14;;;;;;;;;14.75;14.75;;;;;;;;5061516;28;9649;-59
2023/07/03 12:54:39;;;;;;;;;29.50;25.25;;;;;;;;5060677;28;9578;-64
2023/07/03 12:57:09;;;;;;;;;8.33;8.33;;;;;;;;5058281;28;8810;-61
2023/07/03 12:59:35;;;;;;;;;8.00;7.33;;;;;;;;5069262;28;8798;-61
2023/07/03 13:02:00;;;;;;;;;11.00;10.00;;;;;;;;5064540;28;9192;-60
2023/07/03 13:04:26;;;;;;;;;9.00;8.33;;;;;;;;5062877;28;9041;-60
2023/07/03 13:06:51;;;;;;;;;6.33;6.33;;;;;;;;5060317;28;9702;-59
2023/07/03 13:09:16;;;;;;;;;4.67;4.33;;;;;;;;5063629;28;8836;-60
2023/07/03 13:11:46;;;;;;;;;3.00;3.00;;;;;;;;5057840;28;8841;-59
2023/07/03 13:14:17;;;;;;;;;3.50;3.00;;;;;;;;5073311;28;9572;-60
2023/07/03 13:16:45;;;;;;;;;4.50;3.75;;;;;;;;5054165;28;8871;-59
2023/07/03 13:19:10;;;;;;;;;4.33;3.67;;;;;;;;5053212;28;8814;-59
2023/07/03 13:21:37;;;;;;;;;2.67;2.67;;;;;;;;5053022;28;8916;-59
2023/07/03 13:24:11;;;;;;;;;3.00;3.00;;;;;;;;5063167;28;8828;-60
2023/07/03 13:26:36;;;;;;;;;3.00;3.00;;;;;;;;5072957;28;9139;-59
2023/07/03 13:29:03;;;;;;;;;4.00;4.00;;;;;;;;5072795;28;9058;-60
2023/07/03 13:31:31;;;;;;;;;5.67;5.67;;;;;;;;5071073;28;8795;-60
2023/07/03 13:34:04;;;;;;;;;3.33;3.33;;;;;;;;5071331;28;8959;-60
2023/07/03 13:36:55;;;;;;;;;5.00;4.00;;;;;;;;5060001;28;8935;-62
2023/07/03 13:39:20;;;;;;;;;4.50;4.00;;;;;;;;5047690;28;9006;-59
2023/07/03 13:41:47;;;;;;;;;4.33;4.00;;;;;;;;5051485;28;9591;-60
2023/07/03 13:44:13;;;;;;;;;5.00;5.00;;;;;;;;5051799;28;8745;-60
2023/07/03 13:46:40;;;;;;;;;6.00;5.00;;;;;;;;5065709;28;8810;-60
2023/07/03 13:49:06;;;;;;;;;7.25;5.75;;;;;;;;5071504;28;8898;-59
2023/07/03 13:51:31;;;;;;;;;4.67;4.00;;;;;;;;5067034;28;8810;-60
2023/07/03 13:53:57;;;;;;;;;3.00;3.00;;;;;;;;5072238;28;8801;-60
2023/07/03 13:56:23;;;;;;;;;3.00;2.67;;;;;;;;5072148;28;9063;-60
2023/07/03 13:58:48;;;;;;;;;5.00;4.33;;;;;;;;5061073;28;8872;-60
2023/07/03 14:01:13;;;;;;;;;5.33;4.67;;;;;;;;5052031;28;8824;-61
2023/07/03 14:03:39;;;;;;;;;4.67;4.00;;;;;;;;5052155;28;8832;-60
2023/07/03 14:06:06;;;;;;;;;4.00;4.00;;;;;;;;5066942;28;8958;-59
2023/07/03 14:08:31;;;;;;;;;5.00;5.00;;;;;;;;5071486;28;8885;-59
2023/07/03 14:10:56;;;;;;;;;4.33;4.33;;;;;;;;5068239;28;8813;-61
2023/07/03 14:13:22;;;;;;;;;5.33;4.67;;;;;;;;5067756;28;8814;-60
2023/07/03 14:15:47;;;;;;;;;6.67;6.33;;;;;;;;5056671;28;8883;-59
2023/07/03 14:18:12;;;;;;;;;7.33;6.33;;;;;;;;5053940;28;8845;-60
2023/07/03 14:20:37;;;;;;;;;56.75;45.75;;;;;;;;5052893;28;8849;-58
2023/07/03 14:23:05;;;;;;;;;6.33;6.33;;;;;;;;5066946;28;8883;-59
2023/07/03 14:25:30;;;;;;;;;6.00;5.00;;;;;;;;5065420;28;8817;-60
2023/07/03 14:27:57;;;;;;;;;4.67;4.67;;;;;;;;5071751;28;8889;-59
2023/07/03 14:30:22;;;;;;;;;8.00;6.33;;;;;;;;5071622;28;8801;-60
2023/07/03 14:32:47;;;;;;;;;6.00;5.00;;;;;;;;5071667;28;9926;-60
2023/07/03 14:35:13;;;;;;;;;6.33;5.67;;;;;;;;5063676;28;9180;-59
2023/07/03 14:37:38;;;;;;;;;7.00;7.00;;;;;;;;5051281;28;8874;-59
2023/07/03 14:40:03;;;;;;;;;8.33;6.67;;;;;;;;5055929;28;8845;-59
2023/07/03 14:42:29;;;;;;;;;6.67;6.67;;;;;;;;5069983;28;8830;-59
2023/07/03 14:44:54;;;;;;;;;6.33;6.33;;;;;;;;5071434;28;8982;-60
2023/07/03 14:47:20;;;;;;;;;7.00;7.00;;;;;;;;5071556;28;8802;-62
2023/07/03 14:49:45;;;;;;;;;7.33;7.33;;;;;;;;5071567;28;8794;-59
2023/07/03 14:52:10;;;;;;;;;7.67;7.00;;;;;;;;5059591;28;8904;-60
2023/07/03 14:54:36;;;;;;;;;7.00;6.00;;;;;;;;5055891;28;8908;-59
2023/07/03 14:57:01;;;;;;;;;6.67;6.67;;;;;;;;5071174;28;8805;-60